TimeCDT,TemperatureF,Dew PointF,Humidity,Sea Level PressureIn,VisibilityMPH,Wind Direction,Wind SpeedMPH,Gust SpeedMPH,PrecipitationIn,Events,Conditions,WindDirDegrees,DateUTC
12:52 AM,36.0,26.1,67,29.97,10.0,WNW,12.7,24.2,N/A,,Overcast,300,2013-04-19 05:52:00
1:52 AM,35.1,26.1,70,29.97,10.0,WNW,12.7,-,N/A,,Overcast,290,2013-04-19 06:52:00
2:52 AM,35.1,26.1,70,29.95,10.0,WNW,15.0,-,N/A,,Overcast,290,2013-04-19 07:52:00
3:52 AM,35.1,26.1,70,29.96,10.0,WNW,16.1,-,N/A,,Overcast,290,2013-04-19 08:52:00
4:52 AM,34.0,26.1,73,29.96,10.0,WNW,12.7,-,N/A,,Mostly Cloudy,290,2013-04-19 09:52:00
5:52 AM,33.1,26.1,75,29.98,10.0,WNW,11.5,-,N/A,,Clear,290,2013-04-19 10:52:00
6:52 AM,32.0,25.0,75,30.00,10.0,WNW,12.7,-,N/A,,Clear,300,2013-04-19 11:52:00
7:52 AM,35.1,25.0,67,30.02,10.0,WNW,15.0,28.8,N/A,,Clear,300,2013-04-19 12:52:00
8:52 AM,37.0,25.0,62,30.02,10.0,WNW,17.3,25.3,N/A,,Clear,300,2013-04-19 13:52:00
9:52 AM,41.0,25.0,53,30.02,10.0,WNW,18.4,26.5,N/A,,Clear,300,2013-04-19 14:52:00
10:52 AM,43.0,24.1,47,30.03,10.0,WNW,17.3,-,N/A,,Clear,290,2013-04-19 15:52:00
11:52 AM,46.9,23.0,39,30.03,10.0,WNW,20.7,26.5,N/A,,Clear,300,2013-04-19 16:52:00
12:52 PM,50.0,23.0,35,30.01,10.0,WNW,17.3,26.5,N/A,,Mostly Cloudy,290,2013-04-19 17:52:00
1:52 PM,52.0,24.1,34,30.01,10.0,West,16.1,25.3,N/A,,Mostly Cloudy,270,2013-04-19 18:52:00
2:52 PM,51.1,21.9,32,30.01,10.0,WNW,21.9,33.4,N/A,,Mostly Cloudy,290,2013-04-19 19:52:00
3:52 PM,52.0,26.1,37,30.01,10.0,WNW,20.7,28.8,N/A,,Overcast,290,2013-04-19 20:52:00
4:52 PM,53.1,26.1,35,30.02,10.0,NW,13.8,26.5,N/A,,Overcast,310,2013-04-19 21:52:00
5:52 PM,52.0,27.0,38,30.03,10.0,NW,15.0,-,N/A,,Mostly Cloudy,320,2013-04-19 22:52:00
6:52 PM,51.1,28.0,41,30.04,10.0,NW,12.7,-,N/A,,Scattered Clouds,310,2013-04-19 23:52:00
7:52 PM,46.0,28.0,50,30.05,10.0,NNW,6.9,-,N/A,,Partly Cloudy,340,2013-04-20 00:52:00
8:52 PM,44.1,28.0,53,30.07,10.0,Calm,Calm,-,N/A,,Mostly Cloudy,0,2013-04-20 01:52:00
9:52 PM,35.1,28.0,76,30.10,10.0,Calm,Calm,-,N/A,,Clear,0,2013-04-20 02:52:00
10:52 PM,33.1,27.0,78,30.12,10.0,North,6.9,-,N/A,,Clear,350,2013-04-20 03:52:00
11:52 PM,32.0,27.0,82,30.13,10.0,NW,4.6,-,N/A,,Clear,320,2013-04-20 04:52:00